Aviation Digital Data Service (ADDS)

Output produced by METARs form (1053 UTC 19 January 2019)
found at http://www.aviationweather.gov/metar/data/
 
RJSK 191000Z 29012KT 9999 FEW025 BKN040 02/M05 Q1018
TAF RJSK 190510Z 1906/2012 29015KT 9999 FEW020 BKN040 
     BECMG 1910/1912 13004KT 
     TEMPO 1921/2003 3000 -SN BR FEW005 BKN008 BKN015 
     TEMPO 2003/2009 1500 SHRASN BR FEW003 BKN005 BKN015 
     BECMG 2006/2009 29018KT 
     TEMPO 2009/2012 29020G30KT 1500 -SHSN FEW005 BKN008 BKN015
       
RJKA 191000Z VRB01KT 9999 FEW035 SCT045 BKN070 16/12 Q1021
RJSA 191000Z 23012KT 9999 FEW010 BKN040 M01/M06 Q1016
TAF RJSA 190507Z 1906/2012 23010KT 9999 FEW020 BKN040 
     TEMPO 1906/1909 3000 -SHSN 
     TEMPO 2003/2006 3000 -SHSN 
     TEMPO 2006/2009 0700 SHSN FEW003 BKN005 BKN008 
     TEMPO 2009/2012 25015G25KT 0700 SHSN FEW003 BKN005 BKN008
       
RJEC 191000Z 19004KT 8000 -SHSN FEW005 SCT015 BKN025 M06/M08 Q1013
TAF AMD RJEC 190709Z 1907/2012 20005KT 9999 FEW015 BKN025 
     TEMPO 1907/1912 2000 -SHSN 
     BECMG 2006/2009 31007KT 
     TEMPO 2006/2009 3000 -SHSN 
     TEMPO 2009/2012 0700 SHSN VV005
       
RJFE 191014Z VRB02KT 5000 SHRA BR FEW015 SCT020 BKN025 12/11 Q1019 RMK 1CU015 4CU020 5CU025 A3009
RJFF 191030Z 16007KT 9999 FEW030 BKN045 11/03 Q1019 NOSIG RMK 1CU030 7SC045 A3011
TAF RJFF 190513Z 1906/2012 15010KT 9999 FEW030 
     TEMPO 1918/2000 4000 -SHRA BR 
     BECMG 1921/2000 32008KT
       
RJSF 191000Z 33007KT 9999 -SHSN FEW020 SCT040 02/M04 Q1018
TAF RJSF 190511Z 1906/2012 35008KT 9999 FEW020 BKN040 
     BECMG 1918/1921 18008KT 
     BECMG 2006/2009 33018KT 
     TEMPO 2009/2012 33020G30KT
       
ROTM 190956Z 12008KT 10SM CLR 19/13 A3015 RMK AO2 SLP195 T01890133 $
TAF ROTM 1903/2003 10006KT 9999 SCT035 BKN050 QNH3013INS 
     BECMG 1909/1911 VRB06KT 9999 SCT050 QNH3007INS 
     BECMG 1923/2001 27012KT 9999 SCT050 QNH3005INS LAST TAF NO AMD AFT 1907/
NEXT 2203 T14/1915Z T22/2002Z
       
RJNG 190945Z 30003KT 9999 FEW030 SCT050 BKN/// 09/00 Q1020 RMK 1CU030 4SC050 A3014
RJCH 191000Z 27010KT 9999 FEW020 BKN040 M00/M06 Q1016
TAF RJCH 190510Z 1906/2012 29009KT 9999 FEW020 SCT040 
     BECMG 1915/1917 10005KT 
     TEMPO 2003/2006 3000 -SHSN FEW005 BKN008 
     TEMPO 2006/2009 1500 -SHSN FEW003 BKN006 
     BECMG 2009/2012 29014KT 
     TEMPO 2009/2012 3000 -SHSN FEW005 BKN008
       
RJSI 191000Z VRB05KT 9999 FEW015 BKN040 03/M06 Q1017
RJOA 191000Z 00000KT 9999 FEW020 BKN060 07/01 Q1019
TAF RJOA 190505Z 1906/2012 27005KT 9999 FEW025 
     BECMG 1918/1921 2000 -SHRA BR BCFG FEW000 SCT005 BKN008 
     TEMPO 1921/2000 0700 -SHRA FG FEW000 SCT003 BKN005 
     BECMG 2000/2003 9999 NSW FEW020 BKN025
       
RJOF 190936Z VRB02KT 9999 FEW030 SCT070 09/02 Q1021 RMK 1CU030 3AC070 A3015
RJAH 191000Z 01004KT 9999 FEW030 00/M07 Q1019
TAF RJAH 190505Z 1906/2012 05005KT 9999 FEW030 
     BECMG 2000/2003 24006KT
       
ROIG 191000Z 10005KT 070V130 9999 FEW033 22/15 Q1019
TAF ROIG 190509Z 1906/2012 12008KT 9999 FEW035 SCT045 
     BECMG 1921/2000 24006KT 
     BECMG 2006/2009 01012KT 
     TEMPO 2006/2009 4000 SHRA
       
RJOI 190955Z 18008KT 9999 FEW030 SCT045 10/03 A3013 RMK SLP202 T01000028
RJOW 191000Z 18005KT 9999 FEW050 BKN080 09/02 Q1019
RJAW 190900Z 04010KT 010V070 9999 SCT030 18/09 Q1020 RMK 3CU030 A3014
RJOC 191000Z 26003KT 9999 FEW015 BKN040 09/07 Q1019
TAF RJOC 190505Z 1906/2012 24008KT 9999 FEW020 BKN040 
     TEMPO 1918/2000 3000 SHRA BR FEW002 BKN008 BKN015
       
RODN 190956Z AUTO 11005KT 10SM CLR 16/10 A3013 RMK AO2 SLP211 T01570102 $
TAF AMD RODN 190907Z 1909/2014 13006KT 9999 BKN065 QNH3012INS 
     BECMG 2001/2002 20009KT 9999 SCT015 OVC030 QNH3009INS 
     BECMG 2005/2006 26010G15KT 9999 SCT015 OVC030 QNH3009INS 
     TEMPO 2006/2010 8000 -SHRA BKN010 
     BECMG 2009/2010 35015G20KT 9999 BKN030 QNH3006INS TX24/2003Z TN11/1919Z
       
RJFK 191000Z 35003KT 9999 FEW030 BKN060 09/04 Q1020 RMK 1CU030 7SC060 A3013
TAF RJFK 190513Z 1906/2012 30008KT 9999 FEW030 BKN050 
     TEMPO 1918/2000 1500 SHRA BR FEW005 BKN008 BKN010 
     BECMG 2003/2006 32020KT 
     TEMPO 2003/2009 32020G30KT
       
RJBB 191030Z 13004KT CAVOK 09/03 Q1021 NOSIG
TAF RJBB 190505Z 1906/2012 18006KT 9999 FEW030 
     BECMG 2000/2003 28012KT 
     BECMG 2006/2009 30022KT
       
RJFR 191000Z 11004KT 070V160 9999 FEW040 BKN070 11/04 Q1019
TAF RJFR 190506Z 1906/2012 18005KT 9999 FEW030 SCT045 
     BECMG 1918/1921 30012KT 
     TEMPO 1918/2000 4000 -SHRA BR
       
RJOK 191000Z 36003KT 330V040 9999 FEW030 SCT080 07/M00 Q1020
TAF RJOK 190508Z 1906/2012 17006KT 9999 FEW030 
     BECMG 1907/1909 35008KT
       
RJNK 191000Z 15003KT 9999 FEW020 SCT060 06/02 Q1020
TAF RJNK 190505Z 1906/2012 18006KT 9999 FEW030 
     TEMPO 1921/2000 4000 -SHRA BR FEW005 BKN008 
     BECMG 2000/2003 29018KT 
     TEMPO 2000/2006 3000 TSRA BR FEW005 BKN008 FEW015CB 
     TEMPO 2006/2012 32022G34KT
       
RJFT 191000Z 14003KT 120V180 9999 FEW035 BKN070 09/04 Q1020
TAF RJFT 190509Z 1906/2012 23007KT 9999 FEW030 BKN050 
     BECMG 1908/1910 12004KT 
     BECMG 1914/1916 18005KT 
     TEMPO 1915/1921 0800 -SHRA FG FEW001 BKN005 BKN010 
     TEMPO 1921/2003 3000 -SHRA BR FEW003 BKN008 BKN012
       
RJCK 191000Z 31003KT 9999 FEW030 M03/M12 Q1010
TAF RJCK 190509Z 1906/2012 29005KT 9999 FEW030 
     TEMPO 2009/2012 1500 -SHSN FEW003 BKN005
       
RJAF 190700Z 34007KT 290V360 CAVOK 04/M08 Q1017
RJOM 191000Z 13006KT 9999 FEW030 BKN080 10/M00 Q1020
TAF RJOM 190506Z 1906/2012 23009KT 9999 FEW030 SCT060 
     BECMG 1910/1912 15009KT 
     BECMG 1918/1921 28008KT 
     TEMPO 1921/2000 SHRA
       
RJCM 191035Z 34013KT 3100 -SHSN FEW010 SCT015 BKN020 M04/M07 Q1012 RMK 1ST010 3ST015 6CU020 A2989
TAF RJCM 190512Z 1906/2012 31010KT 9999 FEW020 SCT040 
     BECMG 1913/1915 21005KT 
     BECMG 2003/2006 04005KT
       
RJOH 191000Z 26012KT 9999 -SHRA FEW020 SCT030 BKN050 09/04 Q1020
TAF RJOH 190506Z 1906/2012 24007KT 9999 FEW020 BKN045 
     TEMPO 1918/2000 3000 SHRA BR FEW003 BKN008 BKN015
       
RJSM 191000Z 28006KT 9999 FEW015 BKN030 M01/M08 Q1016
ROMY 191000Z 11004KT 050V120 CAVOK 19/14 Q1019
RJFM 191000Z 26002KT 9999 FEW030 BKN060 BKN070 14/05 Q1020
TAF RJFM 190511Z 1906/2012 26014KT 9999 FEW030 
     TEMPO 1918/2000 4000 -SHRA BR 
     TEMPO 2000/2009 29020G30KT
       
RJEB 190700Z 29015KT 9999 FEW015 M02/M09 Q1010
RJFU 191000Z 14011KT 9999 FEW050 BKN080 10/06 Q1019
TAF RJFU 190512Z 1906/2012 15010KT 9999 FEW030 BKN050 
     BECMG 1914/1916 26013KT 
     TEMPO 1915/1918 4000 -SHRA BR 
     BECMG 2000/2003 32015KT
       
ROAH 191030Z 11005KT CAVOK 20/12 Q1020 RMK A3013
TAF ROAH 190505Z 1906/2012 14008KT 9999 FEW035 SCT045 
     BECMG 2000/2003 22010KT 
     BECMG 2006/2009 01020KT 
     TEMPO 2006/2009 4000 SHRA
       
RJCN 190900Z 35005KT 300V040 9999 -SHSN FEW015 SCT040 M03/M09 Q1009
RJBD 191000Z VRB02KT 9999 FEW035 08/01 Q1021
RJCC 191030Z VRB02KT 9999 FEW030 M05/M12 Q1015 RMK 1CU030 A2999
TAF RJCC 190505Z 1906/2012 02007KT 9999 FEW020 
     BECMG 1911/1913 24005KT 
     BECMG 2000/2003 16011KT 
     TEMPO 2006/2009 1500 -SHSN FEW004 BKN006 
     TEMPO 2009/2012 0700 SHSN VV005 
     BECMG 2009/2012 32009KT
       
RJAA 191030Z 19002KT 9999 FEW030 03/M03 Q1019 BECMG 26005KT
TAF RJAA 190505Z 1906/2012 36006KT 9999 FEW030 
     BECMG 2000/2003 23012KT 
     BECMG 2006/2009 30007KT
       
RJSN 191000Z 28012KT 9999 FEW050 SCT070 BKN/// 06/M03 Q1021
TAF RJSN 190506Z 1906/2012 29012KT 9999 FEW030 SCT050 
     BECMG 1912/1914 18012KT 
     TEMPO 1921/2003 4000 SHRA BR FEW005 BKN008 
     BECMG 2003/2006 30028KT 
     TEMPO 2003/2006 3000 TSRA BR FEW005 BKN008 FEW015CB 
     TEMPO 2006/2012 30034G44KT
       
RJCB 191000Z 34004KT 300V030 9999 FEW030 M06/M11 Q1010
TAF RJCB 190507Z 1906/2012 30008KT 9999 FEW030 
     BECMG 1908/1910 16005KT 
     BECMG 2006/2009 32005KT 
     TEMPO 2009/2012 1500 -SHSN FEW003 BKN005
       
RJSR 191000Z 23006KT 9999 FEW020 BKN040 M01/M05 Q1018
RJFO 191000Z 27003KT 9999 FEW030 BKN070 10/04 Q1020
TAF RJFO 190508Z 1906/2012 04005KT 9999 FEW030 SCT050 
     BECMG 1908/1910 20005KT 
     BECMG 1921/2000 31014KT 
     TEMPO 2003/2006 31015G25KT
       
RJOB 191000Z VRB02KT 9999 FEW020 06/02 Q1020
TAF RJOB 190507Z 1906/2012 24006KT 9999 FEW025 SCT045 
     BECMG 1915/1917 04006KT 
     TEMPO 1918/2000 3000 -SHRA BR BCFG FEW000 SCT003 BKN005 
     TEMPO 2000/2003 4000 -SHRA BR BCFG FEW000 SCT005 BKN008 
     BECMG 2003/2006 29012KT
       
RJOO 191000Z VRB02KT 9999 FEW030 07/02 Q1021 RMK 1CU030 A3016
TAF RJOO 190506Z 1906/2012 20005KT 9999 FEW025 
     BECMG 1906/1908 32004KT
       
RJTO 190700Z 23003KT 130V310 9999 FEW035 SCT/// 11/M02 Q1018
RJFS 191000Z 02003KT 9999 FEW035 SCT060 BKN070 09/05 Q1020
TAF RJFS 190510Z 1906/2012 18008KT 9999 FEW030 BKN050 
     BECMG 1914/1916 27005KT 
     TEMPO 1915/1918 4000 -SHRA BR
       
RJCO 191000Z 27006KT 9999 FEW020 SCT050 M02/M08 Q1015
RJSS 191000Z 31008KT 260V320 9999 FEW030 SCT050 03/M07 Q1019
TAF RJSS 190506Z 1906/2012 30012KT 9999 FEW030 SCT050 
     TEMPO 1906/1908 30015G25KT 
     BECMG 1909/1911 24004KT 
     BECMG 2009/2012 30015KT
       
RORS 191000Z 12002KT CAVOK 18/14 Q1019
RJNY 190617Z 27013KT 9999 FEW025 13/M05 Q1017 RMK 1CU025 A3006
RJSY 191000Z 27015KT 9999 FEW030 BKN040 05/M04 Q1020
RJBT 190900Z 20003KT 9999 FEW030 SCT040 BKN060 09/09 Q1019
RJOT 191000Z 21005KT 170V240 9999 FEW025 08/M02 Q1020
TAF RJOT 190507Z 1906/2012 26009KT 9999 FEW030 
     TEMPO 1921/2003 4000 -SHRA BR FEW003 SCT005 BKN008
       
RJFG 190900Z VRB01KT 9999 FEW030 BKN060 12/08 Q1021
RJOS 191000Z VRB01KT 9999 FEW030 08/02 Q1021
RJTT 191030Z 35003KT 290V020 9999 SCT040 09/02 Q1019 NOSIG RMK 3SC040 A3010
TAF RJTT 190505Z 1906/2012 14006KT 9999 FEW030 
     BECMG 1907/1909 02008KT 
     BECMG 2000/2003 20016KT 
     BECMG 2006/2009 02006KT
       
RJOR 191000Z 17007KT 9999 FEW060 BKN080 07/05 Q1019
RJNT 191000Z 19006KT 9999 FEW030 SCT/// 05/01 Q1020
TAF RJNT 190505Z 1906/2012 18008KT 9999 FEW030 SCT050 
     TEMPO 2000/2006 4000 -SHRA BR FEW005 BKN008 
     BECMG 2003/2006 25014KT 
     TEMPO 2009/2012 3000 TSRASN BR FEW005 BKN008 FEW020CB 
     BECMG 2009/2012 32012KT
       
RJDT 191000Z 34002KT 9000 FEW030 BKN060 10/08 Q1018
RJCW 190900Z 34012KT 9999 FEW010 SCT020 BKN030 M04/M07 Q1013
RJSC 191000Z 26004KT 9999 FEW040 BKN050 02/M05 Q1019
RJDC 191000Z 10010KT 9999 FEW030 BKN050 BKN070 10/06 Q1020
RJOY 191000Z 13003KT 110V190 CAVOK 07/M01 Q1021
RJTY 190956Z AUTO 02006KT 10SM CLR 04/M07 A3014 RMK AO2 SLP219 T00401072 FZRANO $
TAF RJTY 190500Z 1905/2011 20006KT 9999 SKC QNH3009INS 
     BECMG 1907/1908 21006KT 9999 SCT040 SCT150 QNH2961INS 
     TEMPO 2000/2004 22010G15KT 
     BECMG 2003/2004 21006KT 9999 SKC QNH2953INS TX11/1905Z TNM02/1922Z
       
ROYN 191000Z AUTO 16002KT 9999 NSC 20/16 Q1018
RORY 191000Z AUTO 13007KT 9999 NCD 17/09 Q1021